createdAt,value
2022-09-13T00:03:42.732Z,100796.75
2022-09-13T00:14:04.315Z,100766.69
2022-09-13T00:24:25.792Z,100751.47
2022-09-13T00:34:47.270Z,100741.59
2022-09-13T00:45:12.156Z,100720.16
2022-09-13T00:55:44.333Z,100732.16
2022-09-13T01:06:11.616Z,100721.91
2022-09-13T01:16:33.272Z,100699.47
2022-09-13T01:27:05.061Z,100680.94
2022-09-13T01:37:43.913Z,100663.72
2022-09-13T01:48:17.325Z,100657.59
2022-09-13T01:58:49.918Z,100645.19
2022-09-13T02:09:21.203Z,100655.22
2022-09-13T02:19:58.222Z,100644.19
2022-09-13T02:30:21.073Z,100643.69
2022-09-13T02:40:49.257Z,100624.06
2022-09-13T02:51:10.691Z,100619.09
2022-09-13T03:01:35.412Z,100625.72
2022-09-13T03:12:24.976Z,100615.88
2022-09-13T03:23:04.750Z,100606.59
2022-09-13T03:33:44.274Z,100625.16
2022-09-13T03:44:14.094Z,100636.56
2022-09-13T03:54:38.623Z,100643.66
2022-09-13T04:05:00.076Z,100641.16
2022-09-13T04:15:21.894Z,100638.97
2022-09-13T04:25:43.365Z,100634.16
2022-09-13T04:36:04.949Z,100644.06
2022-09-13T04:46:26.446Z,100643.63
2022-09-13T04:56:48.802Z,100649.19
2022-09-13T05:07:10.421Z,100657.59
2022-09-13T05:17:32.089Z,100644.16
2022-09-13T05:27:53.526Z,100644.72
2022-09-13T05:38:14.982Z,100642.44
2022-09-13T05:48:37.338Z,100659.63
2022-09-13T05:58:59.193Z,100656.69
2022-09-13T06:09:21.037Z,100654.06
2022-09-13T06:19:42.624Z,100659.03
2022-09-13T06:30:05.357Z,100679.97
2022-09-13T06:40:26.883Z,100668.78
2022-09-13T06:50:48.334Z,100680.03
2022-09-13T07:01:20.129Z,100683.94
2022-09-13T07:11:42.439Z,100677.63
2022-09-13T07:22:04.906Z,100689.16
2022-09-13T07:32:26.386Z,100705.31
2022-09-13T07:42:47.919Z,100705.06
2022-09-13T07:53:09.368Z,100713.22
2022-09-13T08:03:31.406Z,100723.84
2022-09-13T08:13:53.063Z,100741.72
2022-09-13T08:24:21.291Z,100731.78
2022-09-13T08:34:42.835Z,100741.94
2022-09-13T08:45:04.567Z,100743.69
2022-09-13T08:55:50.163Z,100750.59
2022-09-13T09:06:17.099Z,100756.84
2022-09-13T09:16:43.372Z,100745.38
2022-09-13T09:27:15.731Z,100743.81
2022-09-13T09:37:38.855Z,100751.72
2022-09-13T09:48:09.399Z,100757.53
2022-09-13T09:58:38.349Z,100752.53
2022-09-13T10:09:02.710Z,100748.00
2022-09-13T10:19:26.533Z,100746.81
2022-09-13T10:29:51.995Z,100750.16
2022-09-13T10:40:22.983Z,100746.34
2022-09-13T10:51:05.903Z,100751.75
2022-09-13T11:01:41.230Z,100757.06
2022-09-13T11:12:18.534Z,100755.75
2022-09-13T11:23:02.176Z,100741.47
2022-09-13T11:33:53.252Z,100737.53
2022-09-13T11:44:52.795Z,100742.84
2022-09-13T11:55:18.838Z,100735.22
2022-09-13T12:05:57.868Z,100735.91
2022-09-13T12:16:48.782Z,100746.47
2022-09-13T12:27:37.666Z,100731.47
2022-09-13T12:38:11.796Z,100730.78
2022-09-13T12:49:10.766Z,100724.97
2022-09-13T12:59:53.400Z,100731.09
2022-09-13T13:10:33.622Z,100728.91
2022-09-13T13:20:55.014Z,100729.25
2022-09-13T13:31:29.825Z,100718.31
2022-09-13T13:42:01.625Z,100721.69
2022-09-13T13:52:26.076Z,100720.81
2022-09-13T14:02:50.492Z,100725.94
2022-09-13T14:13:30.223Z,100715.03
2022-09-13T14:24:11.970Z,100722.63
2022-09-13T14:34:36.341Z,100714.66
2022-09-13T14:45:05.385Z,100719.63
2022-09-13T14:55:38.022Z,100716.22
2022-09-13T15:06:01.236Z,100715.34
2022-09-13T15:16:37.235Z,100720.13
2022-09-13T15:27:03.267Z,100728.06
2022-09-13T15:37:33.540Z,100729.34
2022-09-13T15:47:54.997Z,100732.22
2022-09-13T15:58:16.344Z,100738.06
2022-09-13T16:08:38.646Z,100748.94
2022-09-13T16:19:00.075Z,100739.06
2022-09-13T16:29:21.502Z,100744.75
2022-09-13T16:39:43.123Z,100742.63
2022-09-13T16:50:06.279Z,100742.00
2022-09-13T17:00:28.776Z,100748.50
2022-09-13T17:10:50.127Z,100749.00
2022-09-13T17:21:11.508Z,100752.91
2022-09-13T17:31:32.942Z,100748.63
2022-09-13T17:41:54.750Z,100758.72
2022-09-13T17:52:16.102Z,100754.72
2022-09-13T18:02:37.532Z,100762.16
2022-09-13T18:12:58.982Z,100756.50
2022-09-13T18:23:20.638Z,100754.06
2022-09-13T18:33:42.236Z,100757.06
2022-09-13T18:44:05.016Z,100756.13
2022-09-13T18:54:26.387Z,100751.13
2022-09-13T19:04:48.007Z,100760.31
2022-09-13T19:15:10.216Z,100760.94
2022-09-13T19:25:33.898Z,100743.66
2022-09-13T19:35:55.237Z,100751.84
2022-09-13T19:46:19.640Z,100734.97
2022-09-13T19:56:42.699Z,100731.34
2022-09-13T20:07:04.096Z,100737.75
2022-09-13T20:17:25.510Z,100722.72
2022-09-13T20:27:46.943Z,100737.25
2022-09-13T20:38:08.300Z,100729.22
2022-09-13T20:48:29.656Z,100726.88
2022-09-13T20:58:57.462Z,100727.59
2022-09-13T21:09:19.213Z,100716.72
2022-09-13T21:19:40.633Z,100709.78
2022-09-13T21:30:02.086Z,100715.06
2022-09-13T21:40:23.547Z,100700.91
2022-09-13T21:50:44.914Z,100691.03
2022-09-13T22:01:06.395Z,100700.59
2022-09-13T22:11:29.204Z,100695.59
2022-09-13T22:21:53.710Z,100694.66
2022-09-13T22:32:15.123Z,100680.59
2022-09-13T22:42:36.456Z,100691.91
2022-09-13T22:52:57.848Z,100689.56
2022-09-13T23:03:19.282Z,100678.59
2022-09-13T23:13:41.100Z,100675.19
2022-09-13T23:24:04.199Z,100667.09
2022-09-13T23:34:25.881Z,100667.66
2022-09-13T23:44:47.285Z,100646.91
2022-09-13T23:55:09.184Z,100641.84
